createdAt,value
2019-04-26T00:00:10.199Z,9.38
2019-04-26T00:02:43.925Z,9.37
2019-04-26T00:05:12.797Z,9.35
2019-04-26T00:07:42.188Z,9.34
2019-04-26T00:10:16.054Z,9.31
2019-04-26T00:12:49.182Z,9.28
2019-04-26T00:15:34.449Z,9.28
2019-04-26T00:18:05.130Z,9.26
2019-04-26T00:20:33.668Z,9.23
2019-04-26T00:23:02.276Z,9.20
2019-04-26T00:25:30.885Z,9.21
2019-04-26T00:27:59.431Z,9.20
2019-04-26T00:30:28.039Z,9.19
2019-04-26T00:32:56.686Z,9.18
2019-04-26T00:35:25.218Z,9.15
2019-04-26T00:37:53.848Z,9.13
2019-04-26T00:40:22.539Z,9.11
2019-04-26T00:42:52.095Z,9.12
2019-04-26T00:45:22.939Z,9.11
2019-04-26T00:47:52.508Z,9.09
2019-04-26T00:50:21.426Z,9.08
2019-04-26T00:52:51.813Z,9.06
2019-04-26T00:55:21.981Z,9.05
2019-04-26T00:57:51.513Z,9.02
2019-04-26T01:00:21.593Z,9.00
2019-04-26T01:02:52.117Z,8.97
2019-04-26T01:05:21.218Z,8.95
2019-04-26T01:07:51.405Z,8.94
2019-04-26T01:10:19.973Z,8.92
2019-04-26T01:12:48.615Z,8.91
2019-04-26T01:15:19.862Z,8.88
2019-04-26T01:17:47.637Z,8.86
2019-04-26T01:20:18.875Z,8.83
2019-04-26T01:22:51.081Z,8.82
2019-04-26T01:25:31.522Z,8.82
2019-04-26T01:28:00.935Z,8.83
2019-04-26T01:30:32.447Z,8.81
2019-04-26T01:33:03.258Z,8.79
2019-04-26T01:35:32.172Z,8.75
2019-04-26T01:38:03.757Z,8.75
2019-04-26T01:40:34.008Z,8.75
2019-04-26T01:43:21.569Z,8.75
2019-04-26T01:46:07.797Z,8.76
2019-04-26T01:48:58.737Z,8.73
2019-04-26T01:51:41.927Z,8.72
2019-04-26T01:54:13.455Z,8.72
2019-04-26T01:56:42.768Z,8.71
2019-04-26T01:59:14.288Z,8.70
2019-04-26T02:01:47.795Z,8.68
2019-04-26T02:04:16.531Z,8.66
2019-04-26T02:06:45.138Z,8.63
2019-04-26T02:09:14.120Z,8.62
2019-04-26T02:11:42.836Z,8.59
2019-04-26T02:14:11.550Z,8.56
2019-04-26T02:16:41.170Z,8.53
2019-04-26T02:19:09.788Z,8.50
2019-04-26T02:21:46.650Z,8.49
2019-04-26T02:24:30.127Z,8.46
2019-04-26T02:27:01.576Z,8.46
2019-04-26T02:29:30.434Z,8.47
2019-04-26T02:32:02.176Z,8.46
2019-04-26T02:34:37.175Z,8.41
2019-04-26T02:37:07.431Z,8.36
2019-04-26T02:39:38.941Z,8.33
2019-04-26T02:42:19.388Z,8.30
2019-04-26T02:44:58.144Z,8.27
2019-04-26T02:47:42.922Z,8.25
2019-04-26T02:50:36.569Z,8.23
2019-04-26T02:53:31.646Z,8.20
2019-04-26T02:56:28.234Z,8.19
2019-04-26T02:59:00.277Z,8.16
2019-04-26T03:01:31.793Z,8.13
2019-04-26T03:04:00.413Z,8.12
2019-04-26T03:06:34.245Z,8.09
2019-04-26T03:09:07.151Z,8.07
2019-04-26T03:11:50.622Z,8.08
2019-04-26T03:14:21.487Z,8.09
2019-04-26T03:17:09.501Z,8.07
2019-04-26T03:20:00.799Z,8.03
2019-04-26T03:22:42.560Z,8.02
2019-04-26T03:25:35.210Z,7.99
2019-04-26T03:28:25.506Z,7.97
2019-04-26T03:31:03.452Z,7.92
2019-04-26T03:33:53.968Z,7.89
2019-04-26T03:36:44.270Z,7.87
2019-04-26T03:39:20.186Z,7.84
2019-04-26T03:42:11.551Z,7.83
2019-04-26T03:44:59.396Z,7.82
2019-04-26T03:47:35.614Z,7.85
2019-04-26T03:50:15.610Z,7.85
2019-04-26T03:52:57.011Z,7.87
2019-04-26T03:55:30.168Z,7.87
2019-04-26T03:58:15.558Z,7.89
2019-04-26T04:00:56.593Z,7.92
2019-04-26T04:03:32.494Z,7.94
2019-04-26T04:06:03.745Z,7.98
2019-04-26T04:08:56.260Z,8.02
2019-04-26T04:11:44.319Z,8.04
2019-04-26T04:14:30.606Z,8.09
2019-04-26T04:17:09.361Z,8.17
2019-04-26T04:19:59.225Z,8.21
2019-04-26T04:22:33.526Z,8.28
2019-04-26T04:25:05.324Z,8.33
2019-04-26T04:27:47.284Z,8.41
2019-04-26T04:30:35.227Z,8.45
2019-04-26T04:33:13.122Z,8.52
2019-04-26T04:35:46.084Z,8.60
2019-04-26T04:38:34.177Z,8.66
2019-04-26T04:41:16.297Z,8.72
2019-04-26T04:43:53.263Z,8.78
2019-04-26T04:47:03.803Z,8.88
2019-04-26T04:49:59.400Z,9.02
2019-04-26T04:52:30.914Z,9.23
2019-04-26T04:55:14.717Z,9.46
2019-04-26T04:57:54.522Z,9.67
2019-04-26T05:00:35.674Z,9.83
2019-04-26T05:03:36.131Z,9.95
2019-04-26T05:06:36.451Z,10.06
2019-04-26T05:09:10.720Z,10.21
2019-04-26T05:11:51.930Z,10.37
2019-04-26T05:14:35.300Z,10.56
2019-04-26T05:17:35.231Z,10.83
2019-04-26T05:20:23.276Z,11.10
2019-04-26T05:23:15.928Z,11.45
2019-04-26T05:25:58.168Z,11.78
2019-04-26T05:28:37.082Z,12.14
2019-04-26T05:31:40.435Z,12.41
2019-04-26T05:34:16.782Z,12.61
2019-04-26T05:36:54.782Z,12.86
2019-04-26T05:39:29.376Z,13.09
2019-04-26T05:42:14.174Z,13.38
2019-04-26T05:45:18.867Z,13.72
2019-04-26T05:48:20.472Z,14.10
2019-04-26T05:51:29.086Z,14.51
2019-04-26T05:54:10.846Z,14.88
2019-04-26T05:56:51.130Z,15.27
2019-04-26T05:59:26.301Z,15.63
2019-04-26T06:02:18.382Z,16.00
2019-04-26T06:05:23.220Z,16.34
2019-04-26T06:08:38.776Z,16.67
2019-04-26T06:11:11.965Z,16.95
2019-04-26T06:14:07.191Z,17.18
2019-04-26T06:17:05.867Z,17.37
2019-04-26T06:20:22.821Z,17.61
2019-04-26T06:22:59.666Z,17.93
2019-04-26T06:25:35.825Z,18.33
2019-04-26T06:28:07.341Z,18.69
2019-04-26T06:30:51.667Z,19.03
2019-04-26T06:33:26.150Z,19.36
2019-04-26T06:35:57.446Z,19.58
2019-04-26T06:38:44.043Z,19.80
2019-04-26T06:41:40.032Z,20.04
2019-04-26T06:44:18.988Z,20.22
2019-04-26T06:46:57.790Z,20.49
2019-04-26T06:49:55.144Z,20.70
2019-04-26T06:52:26.777Z,20.67
2019-04-26T06:55:02.233Z,20.48
2019-04-26T06:58:05.659Z,20.66
2019-04-26T07:00:47.503Z,20.83
2019-04-26T07:03:21.862Z,21.04
2019-04-26T07:06:02.558Z,21.14
2019-04-26T07:08:37.140Z,21.38
2019-04-26T07:11:25.252Z,21.59
2019-04-26T07:14:25.294Z,21.73
2019-04-26T07:17:12.216Z,21.75
2019-04-26T07:20:04.836Z,21.84
2019-04-26T07:23:07.963Z,22.08
2019-04-26T07:26:03.870Z,22.22
2019-04-26T07:28:48.833Z,22.35
2019-04-26T07:31:29.003Z,22.44
2019-04-26T07:34:18.632Z,22.50
2019-04-26T07:36:53.532Z,22.57
2019-04-26T07:39:47.716Z,22.81
2019-04-26T07:42:54.121Z,22.98
2019-04-26T07:45:41.811Z,23.14
2019-04-26T07:48:29.471Z,23.34
2019-04-26T07:51:28.534Z,23.48
2019-04-26T07:54:19.348Z,23.59
2019-04-26T07:57:13.434Z,23.71
2019-04-26T08:00:20.255Z,23.88
2019-04-26T08:02:56.201Z,23.89
2019-04-26T08:05:38.303Z,24.03
2019-04-26T08:08:09.019Z,24.27
2019-04-26T08:10:40.845Z,24.36
2019-04-26T08:13:15.517Z,24.30
2019-04-26T08:15:57.580Z,24.45
2019-04-26T08:18:48.340Z,24.57
2019-04-26T08:21:21.483Z,24.94
2019-04-26T08:23:57.800Z,25.45
2019-04-26T08:26:29.549Z,25.59
2019-04-26T08:29:01.648Z,25.75
2019-04-26T08:31:33.135Z,25.93
2019-04-26T08:34:07.505Z,26.12
2019-04-26T08:36:41.568Z,26.23
2019-04-26T08:39:23.386Z,26.20
2019-04-26T08:41:57.206Z,26.17
2019-04-26T08:44:39.090Z,26.29
2019-04-26T08:47:16.779Z,25.94
2019-04-26T08:49:49.373Z,25.52
2019-04-26T08:52:22.428Z,25.40
2019-04-26T08:54:54.516Z,25.43
2019-04-26T08:57:26.320Z,25.53
2019-04-26T08:59:57.907Z,25.63
2019-04-26T09:02:33.655Z,25.85
2019-04-26T09:05:27.623Z,26.01
2019-04-26T09:07:59.220Z,26.36
2019-04-26T09:10:32.864Z,26.68
2019-04-26T09:13:03.827Z,26.93
2019-04-26T09:15:51.647Z,26.94
2019-04-26T09:18:20.344Z,27.04
2019-04-26T09:20:48.918Z,27.13
2019-04-26T09:23:39.591Z,27.21
2019-04-26T09:26:08.613Z,27.37
2019-04-26T09:28:52.977Z,27.61
2019-04-26T09:31:22.129Z,27.80
2019-04-26T09:33:55.113Z,27.67
2019-04-26T09:36:23.895Z,27.52
2019-04-26T09:38:52.439Z,27.63
2019-04-26T09:41:21.121Z,27.87
2019-04-26T09:43:51.308Z,28.09
2019-04-26T09:46:27.530Z,28.19
2019-04-26T09:49:07.071Z,28.13
2019-04-26T09:51:39.057Z,28.26
2019-04-26T09:54:05.439Z,28.50
2019-04-26T09:56:34.102Z,28.48
2019-04-26T09:59:05.706Z,28.26
2019-04-26T10:01:33.995Z,28.18
2019-04-26T10:04:02.615Z,28.26
2019-04-26T10:06:31.241Z,28.17
2019-04-26T10:08:59.857Z,28.24
2019-04-26T10:11:30.124Z,28.37
2019-04-26T10:14:00.384Z,28.57
2019-04-26T10:16:33.598Z,28.71
2019-04-26T10:19:02.616Z,28.73
2019-04-26T10:21:31.151Z,28.88
2019-04-26T10:23:59.771Z,29.07
2019-04-26T10:26:29.839Z,29.30
2019-04-26T10:28:59.931Z,29.32
2019-04-26T10:31:28.542Z,29.47
2019-04-26T10:33:57.087Z,29.59
2019-04-26T10:36:29.692Z,29.74
2019-04-26T10:38:58.334Z,29.63
2019-04-26T10:41:26.848Z,29.40
2019-04-26T10:43:55.493Z,29.43
2019-04-26T10:46:24.466Z,29.39
2019-04-26T10:48:54.553Z,29.50
2019-04-26T10:51:25.105Z,29.51
2019-04-26T10:54:06.064Z,29.60
2019-04-26T10:56:42.391Z,29.58
2019-04-26T10:59:28.052Z,29.59
2019-04-26T11:01:56.832Z,29.47
2019-04-26T11:04:28.171Z,29.41
2019-04-26T11:06:58.137Z,29.44
2019-04-26T11:09:27.175Z,29.35
2019-04-26T11:11:55.806Z,29.49
2019-04-26T11:14:24.515Z,29.40
2019-04-26T11:16:53.925Z,29.33
2019-04-26T11:19:22.569Z,29.06
2019-04-26T11:21:54.875Z,28.93
2019-04-26T11:24:21.484Z,28.97
2019-04-26T11:26:50.132Z,29.11
2019-04-26T11:29:18.784Z,29.26
2019-04-26T11:31:49.083Z,29.14
2019-04-26T11:34:19.179Z,29.19
2019-04-26T11:36:48.122Z,29.12
2019-04-26T11:39:16.908Z,29.11
2019-04-26T11:41:45.514Z,29.19
2019-04-26T11:44:14.318Z,28.98
2019-04-26T11:46:44.976Z,28.79
2019-04-26T11:49:13.135Z,28.71
2019-04-26T11:51:41.743Z,28.76
2019-04-26T11:54:10.383Z,28.54
2019-04-26T11:56:39.039Z,28.40
2019-04-26T11:59:07.677Z,28.17
2019-04-26T12:01:36.668Z,27.86
2019-04-26T12:04:08.488Z,27.53
2019-04-26T12:06:44.549Z,27.16
2019-04-26T12:09:31.132Z,26.91
2019-04-26T12:12:04.780Z,26.86
2019-04-26T12:14:33.456Z,26.70
2019-04-26T12:17:01.321Z,26.55
2019-04-26T12:19:30.250Z,26.43
2019-04-26T12:21:58.887Z,26.19
2019-04-26T12:24:29.603Z,26.00
2019-04-26T12:26:57.861Z,25.88
2019-04-26T12:29:26.468Z,25.76
2019-04-26T12:31:55.104Z,25.67
2019-04-26T12:34:23.725Z,25.48
2019-04-26T12:36:52.346Z,25.39
2019-04-26T12:39:21.519Z,25.31
2019-04-26T12:41:50.141Z,25.24
2019-04-26T12:44:18.813Z,25.22
2019-04-26T12:47:07.129Z,25.27
2019-04-26T12:49:35.748Z,25.20
2019-04-26T12:52:04.369Z,25.17
2019-04-26T12:54:33.016Z,25.19
2019-04-26T12:57:05.744Z,25.11
2019-04-26T12:59:43.516Z,25.07
2019-04-26T13:02:05.909Z,25.11
2019-04-26T13:04:36.260Z,25.14
2019-04-26T13:07:23.444Z,25.13
2019-04-26T13:10:02.227Z,25.04
2019-04-26T13:12:32.457Z,24.99
2019-04-26T13:15:22.055Z,24.90
2019-04-26T13:17:52.615Z,24.84
2019-04-26T13:20:24.465Z,24.74
2019-04-26T13:22:54.277Z,24.62
2019-04-26T13:25:26.459Z,24.52
2019-04-26T13:27:52.049Z,24.48
2019-04-26T13:30:32.421Z,24.48
2019-04-26T13:32:53.482Z,24.49
2019-04-26T13:35:21.365Z,24.49
2019-04-26T13:37:50.001Z,24.49
2019-04-26T13:40:19.286Z,24.55
2019-04-26T13:42:51.438Z,24.62
2019-04-26T13:45:20.119Z,24.66
2019-04-26T13:47:52.862Z,24.70
2019-04-26T13:50:26.694Z,24.69
2019-04-26T13:52:53.465Z,24.69
2019-04-26T13:55:25.424Z,24.72
2019-04-26T13:57:52.515Z,24.72
2019-04-26T14:00:23.134Z,24.74
2019-04-26T14:02:51.712Z,24.75
2019-04-26T14:05:20.403Z,24.72
2019-04-26T14:07:48.957Z,24.74
2019-04-26T14:10:17.745Z,24.75
2019-04-26T14:12:50.034Z,24.72
2019-04-26T14:15:17.462Z,24.73
2019-04-26T14:17:46.032Z,24.77
2019-04-26T14:20:15.090Z,24.80
2019-04-26T14:22:46.866Z,24.79
2019-04-26T14:25:17.089Z,24.75
2019-04-26T14:27:51.509Z,24.74
2019-04-26T14:30:20.475Z,24.76
2019-04-26T14:32:49.063Z,24.76
2019-04-26T14:35:17.638Z,24.77
2019-04-26T14:37:49.774Z,24.77
2019-04-26T14:40:17.681Z,24.77
2019-04-26T14:42:48.587Z,24.77
2019-04-26T14:45:23.828Z,24.79
2019-04-26T14:47:47.875Z,24.75
2019-04-26T14:50:16.641Z,24.70
2019-04-26T14:52:45.195Z,24.68
2019-04-26T14:55:16.582Z,24.69
2019-04-26T14:57:46.734Z,24.68
2019-04-26T15:00:16.799Z,24.61
2019-04-26T15:03:03.268Z,24.64
2019-04-26T15:05:38.297Z,24.62
2019-04-26T15:08:09.537Z,24.58
2019-04-26T15:10:45.926Z,24.53
2019-04-26T15:13:15.328Z,24.51
2019-04-26T15:15:38.035Z,24.44
2019-04-26T15:18:06.653Z,24.39
2019-04-26T15:20:35.268Z,24.38
2019-04-26T15:23:03.917Z,24.28
2019-04-26T15:25:33.593Z,24.25
2019-04-26T15:28:02.568Z,24.18
2019-04-26T15:30:34.643Z,24.15
2019-04-26T15:33:03.164Z,24.09
2019-04-26T15:35:35.603Z,24.00
2019-04-26T15:38:03.704Z,23.84
2019-04-26T15:40:49.225Z,23.72
2019-04-26T15:43:28.236Z,23.64
2019-04-26T15:46:02.327Z,23.58
2019-04-26T15:48:42.993Z,23.49
2019-04-26T15:51:13.468Z,23.38
2019-04-26T15:53:44.837Z,23.34
2019-04-26T15:56:14.622Z,23.27
2019-04-26T15:58:47.920Z,23.21
2019-04-26T16:01:13.921Z,23.12
2019-04-26T16:03:44.585Z,23.10
2019-04-26T16:06:13.106Z,23.08
2019-04-26T16:08:43.763Z,23.05
2019-04-26T16:11:12.492Z,23.02
2019-04-26T16:13:45.103Z,22.99
2019-04-26T16:16:12.600Z,22.98
2019-04-26T16:18:43.099Z,22.93
2019-04-26T16:21:17.675Z,22.87
2019-04-26T16:23:51.148Z,22.86
2019-04-26T16:26:15.318Z,22.82
2019-04-26T16:28:48.642Z,22.79
2019-04-26T16:31:21.704Z,22.75
2019-04-26T16:36:36.649Z,22.67
2019-04-26T16:39:03.291Z,22.66
2019-04-26T16:41:37.743Z,22.60
2019-04-26T16:44:02.780Z,22.55
2019-04-26T16:46:33.314Z,22.48
2019-04-26T16:51:34.107Z,22.36
2019-04-26T16:54:07.433Z,22.31
2019-04-26T16:56:33.649Z,22.25
2019-04-26T16:59:03.233Z,22.20
2019-04-26T17:00:46.861Z,22.42
2019-04-26T17:01:33.394Z,22.14
2019-04-26T17:04:04.161Z,22.07
2019-04-26T17:06:32.494Z,22.00
2019-04-26T17:09:05.016Z,21.95
2019-04-26T17:11:35.050Z,21.90
2019-04-26T17:14:04.909Z,21.84
2019-04-26T17:16:34.709Z,21.77
2019-04-26T17:19:02.497Z,21.71
2019-04-26T17:21:34.594Z,21.65
2019-04-26T17:24:05.885Z,21.58
2019-04-26T17:26:36.748Z,21.48
2019-04-26T17:29:05.646Z,21.42
2019-04-26T17:31:34.338Z,21.34
2019-04-26T17:34:03.550Z,21.24
2019-04-26T17:36:34.527Z,21.15
2019-04-26T17:39:04.531Z,21.05
2019-04-26T17:41:33.431Z,20.95
2019-04-26T17:44:08.026Z,20.83
2019-04-26T17:46:32.619Z,20.71
2019-04-26T17:49:01.591Z,20.57
2019-04-26T17:51:35.224Z,20.44
2019-04-26T17:54:21.045Z,20.31
2019-04-26T17:56:35.359Z,20.20
2019-04-26T17:59:03.278Z,20.10
2019-04-26T18:01:42.931Z,19.99
2019-04-26T18:04:02.284Z,19.86
2019-04-26T18:06:31.062Z,19.73
2019-04-26T18:08:59.696Z,19.64
2019-04-26T18:11:28.308Z,19.54
2019-04-26T18:13:56.969Z,19.45
2019-04-26T18:16:29.374Z,19.31
2019-04-26T18:18:58.017Z,19.20
2019-04-26T18:21:28.269Z,19.06
2019-04-26T18:23:57.289Z,18.96
2019-04-26T18:26:26.173Z,18.90
2019-04-26T18:28:55.344Z,18.81
2019-04-26T18:31:28.614Z,18.70
2019-04-26T18:34:00.596Z,18.61
2019-04-26T18:36:27.753Z,18.53
2019-04-26T18:38:55.465Z,18.45
2019-04-26T18:41:28.713Z,18.38
2019-04-26T18:43:59.764Z,18.30
2019-04-26T18:46:35.694Z,18.19
2019-04-26T18:49:04.356Z,18.16
2019-04-26T18:51:33.445Z,18.11
2019-04-26T18:54:09.244Z,18.04
2019-04-26T18:56:40.455Z,17.95
2019-04-26T18:59:11.759Z,17.91
2019-04-26T19:01:41.806Z,17.80
2019-04-26T19:04:13.094Z,17.70
2019-04-26T19:06:42.185Z,17.61
2019-04-26T19:09:10.111Z,17.58
2019-04-26T19:11:48.631Z,17.50
2019-04-26T19:14:32.292Z,17.43
2019-04-26T19:17:14.461Z,17.35
2019-04-26T19:20:02.088Z,17.24
2019-04-26T19:22:32.225Z,17.22
2019-04-26T19:25:02.045Z,17.15
2019-04-26T19:27:33.276Z,17.10
2019-04-26T19:30:08.690Z,17.04
2019-04-26T19:32:35.413Z,16.98
2019-04-26T19:35:07.602Z,16.91
2019-04-26T19:37:36.759Z,16.86
2019-04-26T19:40:08.865Z,16.78
2019-04-26T19:42:35.547Z,16.74
2019-04-26T19:45:14.208Z,16.66
2019-04-26T19:47:51.960Z,16.59
2019-04-26T19:50:25.531Z,16.54
2019-04-26T19:53:01.863Z,16.51
2019-04-26T19:55:41.811Z,16.45
2019-04-26T19:58:16.694Z,16.41
2019-04-26T20:00:46.618Z,16.36
2019-04-26T20:03:16.738Z,16.28
2019-04-26T20:05:44.315Z,16.24
2019-04-26T20:08:13.308Z,16.22
2019-04-26T20:10:45.364Z,16.17
2019-04-26T20:13:15.075Z,16.12
2019-04-26T20:15:42.729Z,16.12
2019-04-26T20:18:12.269Z,16.12
2019-04-26T20:20:41.397Z,16.11
2019-04-26T20:23:12.253Z,16.08
2019-04-26T20:25:40.776Z,16.00
2019-04-26T20:28:09.386Z,15.92
2019-04-26T20:30:48.401Z,15.89
2019-04-26T20:33:17.289Z,15.88
2019-04-26T20:35:45.863Z,15.86
2019-04-26T20:38:14.411Z,15.80
2019-04-26T20:40:43.422Z,15.76
2019-04-26T20:43:23.807Z,15.74
2019-04-26T20:46:07.983Z,15.71
2019-04-26T20:48:14.190Z,15.63
2019-04-26T20:50:44.479Z,15.56
2019-04-26T20:53:13.093Z,15.53
2019-04-26T20:55:43.411Z,15.48
2019-04-26T20:58:12.031Z,15.39
2019-04-26T21:00:53.693Z,15.33
2019-04-26T21:03:23.170Z,15.25
2019-04-26T21:05:46.216Z,15.21
2019-04-26T21:08:12.551Z,15.23
2019-04-26T21:10:41.796Z,15.20
2019-04-26T21:13:12.214Z,15.13
2019-04-26T21:15:53.391Z,15.08
2019-04-26T21:18:12.339Z,15.01
2019-04-26T21:20:42.515Z,14.93
2019-04-26T21:23:13.246Z,14.89
2019-04-26T21:25:43.502Z,14.83
2019-04-26T21:28:33.026Z,14.77
2019-04-26T21:31:18.214Z,14.75
2019-04-26T21:33:48.466Z,14.68
2019-04-26T21:36:18.687Z,14.57
2019-04-26T21:38:59.357Z,14.50
2019-04-26T21:41:35.708Z,14.43
2019-04-26T21:44:07.575Z,14.36
2019-04-26T21:46:35.779Z,14.27
2019-04-26T21:49:04.405Z,14.19
2019-04-26T21:51:34.022Z,14.15
2019-04-26T21:54:03.752Z,14.13
2019-04-26T21:56:33.746Z,14.11
2019-04-26T21:59:03.684Z,14.05
2019-04-26T22:01:33.122Z,13.97
2019-04-26T22:04:03.438Z,13.90
2019-04-26T22:06:33.450Z,13.84
2019-04-26T22:09:05.169Z,13.78
2019-04-26T22:11:34.162Z,13.73
2019-04-26T22:14:13.178Z,13.70
2019-04-26T22:16:41.825Z,13.67
2019-04-26T22:19:16.057Z,13.70
2019-04-26T22:22:05.797Z,13.72
2019-04-26T22:24:37.442Z,13.72
2019-04-26T22:27:05.993Z,13.70
2019-04-26T22:29:34.595Z,13.67
2019-04-26T22:32:03.744Z,13.66
2019-04-26T22:34:32.874Z,13.64
2019-04-26T22:37:09.879Z,13.61
2019-04-26T22:39:39.646Z,13.60
2019-04-26T22:42:03.045Z,13.60
2019-04-26T22:44:34.618Z,13.57
2019-04-26T22:47:08.346Z,13.51
2019-04-26T22:49:41.812Z,13.44
2019-04-26T22:52:11.109Z,13.40
2019-04-26T22:54:42.255Z,13.36
2019-04-26T22:57:12.601Z,13.29
2019-04-26T22:59:43.305Z,13.23
2019-04-26T23:02:11.005Z,13.17
2019-04-26T23:04:39.911Z,13.12
2019-04-26T23:07:09.445Z,13.06
2019-04-26T23:09:37.989Z,13.02
2019-04-26T23:12:27.955Z,12.98
2019-04-26T23:15:13.638Z,12.93
2019-04-26T23:17:59.239Z,12.91
2019-04-26T23:20:37.849Z,12.89
2019-04-26T23:23:08.590Z,12.86
2019-04-26T23:25:37.533Z,12.80
2019-04-26T23:28:06.149Z,12.79
2019-04-26T23:30:34.862Z,12.78
2019-04-26T23:33:03.843Z,12.73
2019-04-26T23:35:43.078Z,12.72
2019-04-26T23:38:07.171Z,12.74
2019-04-26T23:40:35.718Z,12.70
2019-04-26T23:43:04.589Z,12.62
2019-04-26T23:45:33.427Z,12.59
2019-04-26T23:48:03.528Z,12.57
2019-04-26T23:50:34.098Z,12.54
2019-04-26T23:53:03.143Z,12.47
2019-04-26T23:55:31.693Z,12.46
2019-04-26T23:58:00.274Z,12.41
